Time;durP1;ratioP1;P1;durP2;ratioP2;P2;SDS_P1;SDS_P2;PMS_P1;PMS_P2;Temp;Humidity;BMP_temperature;BMP_pressure;BME280_temperature;BME280_humidity;BME280_pressure;Samples;Min_cycle;Max_cycle;Signal;HPM_P1;HPM_P2
2022/03/23 00:00:08;;;;;;;;;;;6.20;99.90;;;;;;4955993;28;19926;-76
2022/03/23 00:02:41;;;;;;;;;;;6.10;99.90;;;;;;4956203;28;20017;-76
2022/03/23 00:05:09;;;;;;;;;;;6.10;99.90;;;;;;4955849;28;20302;-76
2022/03/23 00:07:36;;;;;;;;;;;6.10;99.90;;;;;;4956408;28;19934;-76
2022/03/23 00:10:03;;;;;;;;;;;6.20;99.90;;;;;;4955870;28;20358;-76
2022/03/23 00:12:31;;;;;;;;;;;6.20;99.90;;;;;;4955883;28;19933;-77
2022/03/23 00:14:58;;;;;;;;;;;6.20;99.90;;;;;;4955768;28;19973;-77
2022/03/23 00:17:25;;;;;;;;;;;6.20;99.90;;;;;;4956124;28;19926;-77
2022/03/23 00:19:51;;;;;;;;;;;6.30;99.90;;;;;;4954975;28;20350;-77
2022/03/23 00:22:20;;;;;;;;;;;6.30;99.90;;;;;;4956404;28;19926;-76
2022/03/23 00:24:47;;;;;;;;;;;6.20;99.90;;;;;;4955211;28;20421;-75
2022/03/23 00:27:14;;;;;;;;;;;6.10;99.90;;;;;;4955815;28;20295;-75
2022/03/23 00:29:41;;;;;;;;;;;6.00;99.90;;;;;;4955366;28;19930;-76
2022/03/23 00:32:08;;;;;;;;;;;5.80;99.90;;;;;;4955760;28;19933;-76
2022/03/23 00:34:35;;;;;;;;;;;5.80;99.90;;;;;;4954523;28;19934;-76
2022/03/23 00:37:01;;;;;;;;;;;5.60;99.90;;;;;;4955894;28;19930;-76
2022/03/23 00:39:30;;;;;;;;;;;5.60;99.90;;;;;;4955552;28;19933;-76
2022/03/23 00:41:58;;;;;;;;;;;5.50;99.90;;;;;;4955744;28;19977;-76
2022/03/23 00:44:26;;;;;;;;;;;5.40;99.90;;;;;;4955352;28;19933;-76
2022/03/23 00:46:52;;;;;;;;;;;5.40;99.90;;;;;;4955598;28;19933;-76
2022/03/23 00:49:19;;;;;;;;;;;5.30;99.90;;;;;;4955224;28;19926;-74
2022/03/23 00:51:46;;;;;;;;;;;5.20;99.90;;;;;;4955636;28;19926;-76
2022/03/23 00:54:13;;;;;;;;;;;5.20;99.90;;;;;;4954906;28;19933;-76
2022/03/23 00:56:41;;;;;;;;;;;5.10;99.90;;;;;;4955750;28;19932;-75
2022/03/23 00:59:09;;;;;;;;;;;5.00;99.90;;;;;;4955283;28;19926;-75
2022/03/23 01:01:36;;;;;;;;;;;4.90;99.90;;;;;;4955398;28;20021;-75
2022/03/23 01:04:04;;;;;;;;;;;4.90;99.90;;;;;;4954990;28;20369;-75
2022/03/23 01:06:31;;;;;;;;;;;4.90;99.90;;;;;;4955269;28;19926;-75
2022/03/23 01:08:57;;;;;;;;;;;4.90;99.90;;;;;;4955025;28;19933;-75
2022/03/23 01:11:24;;;;;;;;;;;4.90;99.90;;;;;;4955579;28;19937;-76
2022/03/23 01:13:53;;;;;;;;;;;4.90;99.90;;;;;;4954803;28;19969;-76
2022/03/23 01:16:20;;;;;;;;;;;4.90;99.90;;;;;;4955231;28;19927;-76
2022/03/23 01:18:47;;;;;;;;;;;4.80;99.90;;;;;;4954911;28;19937;-74
2022/03/23 01:21:14;;;;;;;;;;;4.70;99.90;;;;;;4954874;28;19992;-74
2022/03/23 01:23:42;;;;;;;;;;;4.70;99.90;;;;;;4954592;28;19930;-76
2022/03/23 01:26:09;;;;;;;;;;;4.70;99.90;;;;;;4955257;28;19989;-75
2022/03/23 01:28:37;;;;;;;;;;;4.70;99.90;;;;;;4955246;28;19926;-76
2022/03/23 01:31:05;;;;;;;;;;;4.70;99.90;;;;;;4954663;28;19997;-76
2022/03/23 01:33:32;;;;;;;;;;;4.60;99.90;;;;;;4954861;28;20330;-76
2022/03/23 01:35:59;;;;;;;;;;;4.50;99.90;;;;;;4954846;28;20360;-75
2022/03/23 01:38:26;;;;;;;;;;;4.50;99.90;;;;;;4955082;28;19930;-76
2022/03/23 01:40:53;;;;;;;;;;;4.40;99.90;;;;;;4955093;28;19933;-76
2022/03/23 01:43:20;;;;;;;;;;;4.30;99.90;;;;;;4955257;28;19980;-75
2022/03/23 01:45:46;;;;;;;;;;;4.30;99.90;;;;;;4954528;28;19984;-75
2022/03/23 01:48:16;;;;;;;;;;;4.30;99.90;;;;;;4955044;28;19975;-76
2022/03/23 01:50:42;;;;;;;;;;;4.30;99.90;;;;;;4954505;28;19933;-76
2022/03/23 01:53:09;;;;;;;;;;;4.20;99.90;;;;;;4955124;28;19930;-75
2022/03/23 01:55:36;;;;;;;;;;;4.20;99.90;;;;;;4954345;28;19981;-76
2022/03/23 01:58:04;;;;;;;;;;;4.10;99.90;;;;;;4955086;28;19930;-76
2022/03/23 02:00:35;;;;;;;;;;;4.10;99.90;;;;;;4954792;28;19930;-76
2022/03/23 02:03:03;;;;;;;;;;;4.00;99.90;;;;;;4954766;28;19926;-76
2022/03/23 02:05:33;;;;;;;;;;;3.90;99.90;;;;;;4954814;28;19926;-75
2022/03/23 02:08:02;;;;;;;;;;;3.90;99.90;;;;;;4954619;28;19961;-76
2022/03/23 02:10:31;;;;;;;;;;;3.90;99.90;;;;;;4953476;28;19926;-75
2022/03/23 02:13:06;;;;;;;;;;;3.90;99.90;;;;;;4954938;28;19926;-77
2022/03/23 02:15:33;;;;;;;;;;;3.90;99.90;;;;;;4954397;28;19937;-76
2022/03/23 02:18:00;;;;;;;;;;;3.90;99.90;;;;;;4954685;28;19926;-76
2022/03/23 02:20:27;;;;;;;;;;;3.90;99.90;;;;;;4954378;28;19930;-76
2022/03/23 02:22:55;;;;;;;;;;;3.90;99.90;;;;;;4954706;28;19933;-75
2022/03/23 02:25:25;;;;;;;;;;;4.00;99.90;;;;;;4954351;28;19926;-75
2022/03/23 02:27:52;;;;;;;;;;;3.90;99.90;;;;;;4954580;28;20029;-76
2022/03/23 02:30:20;;;;;;;;;;;3.90;99.90;;;;;;4954320;28;19930;-76
2022/03/23 02:32:46;;;;;;;;;;;3.90;99.90;;;;;;4954634;28;19926;-76
2022/03/23 02:35:15;;;;;;;;;;;3.90;99.90;;;;;;4955092;28;20398;-75
2022/03/23 02:37:42;;;;;;;;;;;3.90;99.90;;;;;;5007530;28;19932;-75
2022/03/23 02:40:11;;;;;;;;;;;3.90;99.90;;;;;;5007047;28;20333;-74
2022/03/23 02:42:39;;;;;;;;;;;3.90;99.90;;;;;;5007465;28;20294;-75
2022/03/23 02:45:06;;;;;;;;;;;3.90;99.90;;;;;;5007163;28;19930;-74
2022/03/23 02:47:33;;;;;;;;;;;3.80;99.90;;;;;;5007101;28;19937;-76
2022/03/23 02:50:00;;;;;;;;;;;3.80;99.90;;;;;;5006953;28;19947;-75
2022/03/23 02:52:28;;;;;;;;;;;3.70;99.90;;;;;;5007355;28;20281;-75
2022/03/23 03:03:33;;;;;;;;;;;3.50;99.90;;;;;;4972298;28;20389;-75
2022/03/23 03:06:02;;;;;;;;;;;3.50;99.90;;;;;;4977953;28;19933;-75
2022/03/23 03:08:48;;;;;;;;;;;3.40;99.90;;;;;;5010470;28;19929;-75
2022/03/23 03:11:16;;;;;;;;;;;3.30;99.90;;;;;;5010510;28;19934;-75
2022/03/23 03:13:44;;;;;;;;;;;3.30;99.90;;;;;;5009985;28;19926;-75
2022/03/23 03:16:11;;;;;;;;;;;3.30;99.90;;;;;;5010261;28;19929;-75
2022/03/23 03:18:38;;;;;;;;;;;3.20;99.90;;;;;;4995174;28;19954;-73
2022/03/23 03:21:06;;;;;;;;;;;3.20;99.90;;;;;;4961330;28;19949;-74
2022/03/23 03:23:33;;;;;;;;;;;3.10;99.90;;;;;;4957816;28;19933;-74
2022/03/23 03:26:01;;;;;;;;;;;3.10;99.90;;;;;;4958337;28;20029;-74
2022/03/23 03:28:28;;;;;;;;;;;3.10;99.90;;;;;;4958598;28;19977;-74
2022/03/23 03:30:57;;;;;;;;;;;3.00;99.90;;;;;;4958114;28;19927;-75
2022/03/23 03:33:24;;;;;;;;;;;3.10;99.90;;;;;;4958158;28;19926;-75
2022/03/23 03:35:51;;;;;;;;;;;3.10;99.90;;;;;;4957913;28;19932;-75
2022/03/23 03:38:18;;;;;;;;;;;3.00;99.90;;;;;;4958089;28;19926;-75
2022/03/23 03:40:45;;;;;;;;;;;3.00;99.90;;;;;;4957977;28;19926;-73
2022/03/23 03:43:12;;;;;;;;;;;2.90;99.90;;;;;;4957645;28;20464;-74
2022/03/23 03:45:40;;;;;;;;;;;2.90;99.90;;;;;;4957535;28;19926;-75
2022/03/23 03:48:09;;;;;;;;;;;2.90;99.90;;;;;;4957904;28;19932;-75
2022/03/23 03:50:35;;;;;;;;;;;2.80;99.90;;;;;;4957551;28;19926;-75
2022/03/23 03:53:02;;;;;;;;;;;2.90;99.90;;;;;;4957719;28;19926;-76
2022/03/23 03:55:30;;;;;;;;;;;2.80;99.90;;;;;;4957452;28;19985;-75
2022/03/23 03:57:56;;;;;;;;;;;2.80;99.90;;;;;;4957779;28;19933;-75
2022/03/23 04:00:23;;;;;;;;;;;2.80;99.90;;;;;;4957692;28;19930;-74
2022/03/23 04:02:50;;;;;;;;;;;2.80;99.90;;;;;;4957700;28;19930;-75
2022/03/23 04:05:18;;;;;;;;;;;2.80;99.90;;;;;;4957451;28;19977;-74
2022/03/23 04:07:45;;;;;;;;;;;2.70;99.90;;;;;;4957571;28;19930;-75
2022/03/23 04:10:12;;;;;;;;;;;2.70;99.90;;;;;;4956973;28;19926;-75
2022/03/23 04:12:39;;;;;;;;;;;2.70;99.90;;;;;;4957226;28;19930;-75
2022/03/23 04:15:06;;;;;;;;;;;2.60;99.90;;;;;;4957002;28;19930;-75
2022/03/23 04:17:34;;;;;;;;;;;2.60;99.90;;;;;;4957439;28;20412;-75
2022/03/23 04:20:00;;;;;;;;;;;2.40;99.90;;;;;;4957192;28;19930;-75
2022/03/23 04:22:29;;;;;;;;;;;2.20;99.90;;;;;;4957397;28;19930;-74
2022/03/23 04:24:56;;;;;;;;;;;2.10;99.90;;;;;;4957026;28;19992;-75
2022/03/23 04:27:22;;;;;;;;;;;2.00;99.90;;;;;;4956889;28;19926;-74
2022/03/23 04:29:49;;;;;;;;;;;2.00;99.90;;;;;;4957134;28;19926;-75
2022/03/23 04:32:16;;;;;;;;;;;2.10;99.90;;;;;;4956765;28;19930;-77
2022/03/23 04:34:43;;;;;;;;;;;2.10;99.90;;;;;;4956697;28;19933;-75
2022/03/23 04:37:10;;;;;;;;;;;2.10;99.90;;;;;;4957193;28;19933;-75
2022/03/23 04:39:38;;;;;;;;;;;2.20;99.90;;;;;;4956876;28;19930;-75
2022/03/23 04:42:05;;;;;;;;;;;2.20;99.90;;;;;;4956898;28;19930;-75
2022/03/23 04:44:32;;;;;;;;;;;2.20;99.90;;;;;;4956307;28;20359;-75
2022/03/23 04:46:59;;;;;;;;;;;2.30;99.90;;;;;;4956932;28;19926;-75
2022/03/23 04:49:25;;;;;;;;;;;2.30;99.90;;;;;;4956729;28;19933;-75
2022/03/23 04:51:52;;;;;;;;;;;2.30;99.90;;;;;;4957016;28;19926;-75
2022/03/23 04:54:19;;;;;;;;;;;2.30;99.90;;;;;;4956472;28;19934;-76
2022/03/23 04:56:47;;;;;;;;;;;2.30;99.90;;;;;;4956649;28;19926;-76
2022/03/23 04:59:14;;;;;;;;;;;2.40;99.90;;;;;;4956891;28;19926;-77
2022/03/23 05:01:41;;;;;;;;;;;2.40;99.90;;;;;;4956729;28;19926;-77
2022/03/23 05:04:08;;;;;;;;;;;2.40;99.90;;;;;;4956623;28;19926;-76
2022/03/23 05:06:35;;;;;;;;;;;2.40;99.90;;;;;;4956764;28;20312;-77
2022/03/23 05:09:02;;;;;;;;;;;2.40;99.90;;;;;;4956333;28;19930;-76
2022/03/23 05:11:28;;;;;;;;;;;2.40;99.90;;;;;;4956481;28;19958;-77
2022/03/23 05:13:56;;;;;;;;;;;2.40;99.90;;;;;;4956481;28;19926;-76
2022/03/23 05:16:23;;;;;;;;;;;2.40;99.90;;;;;;4956455;28;19926;-76
2022/03/23 05:18:50;;;;;;;;;;;2.40;99.90;;;;;;4956082;28;19981;-76
2022/03/23 05:21:17;;;;;;;;;;;2.30;99.90;;;;;;4956069;28;19930;-76
2022/03/23 05:23:43;;;;;;;;;;;2.40;99.90;;;;;;4956202;28;19930;-77
2022/03/23 05:26:10;;;;;;;;;;;2.40;99.90;;;;;;4956735;28;19926;-77
2022/03/23 05:28:37;;;;;;;;;;;2.40;99.90;;;;;;4956168;28;19937;-77
2022/03/23 05:31:05;;;;;;;;;;;2.40;99.90;;;;;;4955847;28;20025;-77
2022/03/23 05:33:32;;;;;;;;;;;2.40;99.90;;;;;;4956219;28;20020;-76
2022/03/23 05:35:59;;;;;;;;;;;2.40;99.90;;;;;;4956352;28;19926;-77
2022/03/23 05:38:26;;;;;;;;;;;2.40;99.90;;;;;;4962938;28;19936;-78
2022/03/23 05:40:53;;;;;;;;;;;2.50;99.90;;;;;;4966524;28;19972;-78
2022/03/23 05:43:19;;;;;;;;;;;2.50;99.90;;;;;;4965525;28;20008;-74
2022/03/23 05:45:46;;;;;;;;;;;2.50;99.90;;;;;;4960326;28;19981;-76
2022/03/23 05:48:15;;;;;;;;;;;2.50;99.90;;;;;;4955058;28;19930;-75
2022/03/23 05:50:41;;;;;;;;;;;2.50;99.90;;;;;;4954647;28;19933;-76
2022/03/23 05:53:08;;;;;;;;;;;2.50;99.90;;;;;;4954811;28;19927;-76
2022/03/23 05:55:35;;;;;;;;;;;2.50;99.90;;;;;;4954677;28;20021;-76
2022/03/23 05:58:03;;;;;;;;;;;2.50;99.90;;;;;;4955292;28;19927;-75
2022/03/23 06:00:30;;;;;;;;;;;2.50;99.90;;;;;;4954429;28;19969;-76
2022/03/23 06:02:57;;;;;;;;;;;2.50;99.90;;;;;;4963855;28;19930;-76
2022/03/23 06:05:25;;;;;;;;;;;2.50;99.90;;;;;;4989301;28;19925;-75
2022/03/23 06:07:52;;;;;;;;;;;2.60;99.90;;;;;;4973733;28;20475;-76
2022/03/23 06:10:19;;;;;;;;;;;2.60;99.90;;;;;;4973612;28;19933;-75
2022/03/23 06:12:46;;;;;;;;;;;2.60;99.90;;;;;;4964084;28;19926;-76
2022/03/23 06:15:13;;;;;;;;;;;2.60;99.90;;;;;;4977316;28;19933;-76
2022/03/23 06:17:40;;;;;;;;;;;2.60;99.90;;;;;;4989987;28;19961;-77
2022/03/23 06:20:07;;;;;;;;;;;2.70;99.90;;;;;;4986665;28;19973;-77
2022/03/23 06:22:36;;;;;;;;;;;2.70;99.90;;;;;;4983306;28;19937;-79
2022/03/23 06:25:03;;;;;;;;;;;2.70;99.90;;;;;;4981409;28;20406;-78
2022/03/23 06:27:29;;;;;;;;;;;2.80;99.90;;;;;;4970739;28;19926;-77
2022/03/23 06:29:56;;;;;;;;;;;2.90;99.90;;;;;;4970705;28;19934;-76
2022/03/23 06:32:23;;;;;;;;;;;3.00;99.90;;;;;;4971033;28;19934;-76
2022/03/23 06:34:50;;;;;;;;;;;3.10;99.90;;;;;;4973986;28;19929;-77
2022/03/23 06:37:16;;;;;;;;;;;3.20;99.90;;;;;;4984679;28;19926;-77
2022/03/23 06:39:45;;;;;;;;;;;3.30;99.90;;;;;;4993397;28;19926;-75
2022/03/23 06:42:11;;;;;;;;;;;3.40;99.90;;;;;;5009976;28;19926;-78
2022/03/23 06:44:39;;;;;;;;;;;3.50;99.90;;;;;;5009537;28;19934;-77
2022/03/23 06:47:06;;;;;;;;;;;3.60;99.90;;;;;;5010407;28;19930;-77
2022/03/23 06:49:33;;;;;;;;;;;3.70;99.90;;;;;;5010760;28;19926;-80
2022/03/23 06:51:59;;;;;;;;;;;3.80;99.90;;;;;;5010757;28;19930;-77
2022/03/23 06:54:26;;;;;;;;;;;3.90;99.90;;;;;;5010575;28;20177;-78
2022/03/23 06:56:55;;;;;;;;;;;4.00;99.90;;;;;;5009637;28;19976;-77
2022/03/23 06:59:22;;;;;;;;;;;4.10;99.90;;;;;;5009988;28;19926;-77
2022/03/23 07:01:49;;;;;;;;;;;4.20;99.90;;;;;;5001572;28;20024;-78
2022/03/23 07:04:16;;;;;;;;;;;4.30;99.90;;;;;;4992673;28;20294;-77
2022/03/23 07:06:43;;;;;;;;;;;4.40;99.90;;;;;;5009997;28;20344;-76
2022/03/23 07:11:55;;;;;;;;;;;4.60;99.90;;;;;;4979173;28;19929;-77
2022/03/23 07:14:22;;;;;;;;;;;4.80;99.90;;;;;;4973610;28;19934;-76
2022/03/23 07:16:49;;;;;;;;;;;5.00;99.90;;;;;;4957993;28;19930;-77
2022/03/23 07:19:16;;;;;;;;;;;5.10;99.90;;;;;;4965097;28;19977;-77
2022/03/23 07:21:43;;;;;;;;;;;5.30;99.90;;;;;;4957600;28;19926;-78
2022/03/23 07:24:10;;;;;;;;;;;5.40;99.90;;;;;;4957233;28;19933;-77
2022/03/23 07:26:37;;;;;;;;;;;5.50;99.90;;;;;;4957804;28;19926;-77
2022/03/23 07:29:05;;;;;;;;;;;5.70;99.90;;;;;;4957599;28;19926;-77
2022/03/23 07:31:32;;;;;;;;;;;5.80;99.90;;;;;;4964879;28;20342;-76
2022/03/23 07:33:59;;;;;;;;;;;6.00;99.90;;;;;;4966812;28;19957;-79
2022/03/23 07:36:25;;;;;;;;;;;6.10;99.90;;;;;;5009257;28;19926;-77
2022/03/23 07:38:53;;;;;;;;;;;6.30;99.90;;;;;;4976740;28;19926;-76
2022/03/23 07:41:19;;;;;;;;;;;6.40;99.90;;;;;;4983315;28;20024;-78
2022/03/23 07:43:46;;;;;;;;;;;6.60;99.90;;;;;;4964070;28;19926;-77
2022/03/23 07:46:14;;;;;;;;;;;6.70;99.90;;;;;;4966745;28;19926;-76
2022/03/23 07:48:41;;;;;;;;;;;6.80;99.90;;;;;;4976522;28;19932;-76
2022/03/23 07:51:08;;;;;;;;;;;7.00;99.90;;;;;;4976653;28;19933;-77
2022/03/23 07:53:35;;;;;;;;;;;7.20;99.90;;;;;;4971892;28;19930;-76
2022/03/23 07:56:02;;;;;;;;;;;7.30;99.90;;;;;;4961718;28;19926;-78
2022/03/23 07:58:30;;;;;;;;;;;7.40;99.90;;;;;;4964854;28;19930;-77
2022/03/23 08:00:57;;;;;;;;;;;7.60;99.90;;;;;;4956906;28;19933;-78
2022/03/23 08:03:25;;;;;;;;;;;7.70;99.90;;;;;;4956607;28;19933;-77
2022/03/23 08:05:52;;;;;;;;;;;7.90;99.90;;;;;;4956731;28;19926;-75
2022/03/23 08:08:19;;;;;;;;;;;8.10;99.90;;;;;;4956678;28;19930;-75
2022/03/23 08:10:46;;;;;;;;;;;8.20;99.90;;;;;;4961642;28;19929;-74
2022/03/23 08:13:13;;;;;;;;;;;8.40;99.90;;;;;;4976460;28;20402;-76
2022/03/23 08:15:40;;;;;;;;;;;8.50;99.90;;;;;;4973016;28;19926;-77
2022/03/23 08:18:07;;;;;;;;;;;8.70;99.90;;;;;;4992849;28;19929;-77
2022/03/23 08:20:38;;;;;;;;;;;8.80;99.90;;;;;;5009132;28;19930;-77
2022/03/23 08:23:06;;;;;;;;;;;8.90;99.90;;;;;;5008158;28;19976;-77
2022/03/23 08:25:33;;;;;;;;;;;9.10;99.90;;;;;;5007381;28;20392;-77
2022/03/23 08:28:00;;;;;;;;;;;9.20;99.90;;;;;;5008215;28;19925;-75
2022/03/23 08:30:28;;;;;;;;;;;9.40;99.90;;;;;;5007868;28;20380;-77
2022/03/23 08:32:54;;;;;;;;;;;9.50;99.90;;;;;;5008167;28;19926;-77
2022/03/23 08:35:22;;;;;;;;;;;9.70;99.90;;;;;;4991623;28;19975;-75
2022/03/23 08:37:50;;;;;;;;;;;9.80;99.90;;;;;;4992740;28;19926;-77
2022/03/23 08:40:17;;;;;;;;;;;10.00;99.90;;;;;;4977826;28;19948;-76
2022/03/23 08:42:44;;;;;;;;;;;10.10;99.90;;;;;;4972467;28;20046;-77
2022/03/23 08:45:11;;;;;;;;;;;10.20;99.90;;;;;;4972120;28;19926;-78
2022/03/23 08:47:39;;;;;;;;;;;10.40;99.90;;;;;;4972409;28;20028;-78
2022/03/23 08:50:07;;;;;;;;;;;10.60;99.90;;;;;;4971986;28;19961;-78
2022/03/23 08:52:34;;;;;;;;;;;10.80;99.90;;;;;;4972643;28;19926;-78
2022/03/23 08:55:02;;;;;;;;;;;11.00;99.90;;;;;;4971151;28;19926;-77
2022/03/23 08:57:29;;;;;;;;;;;11.10;99.90;;;;;;4971939;28;19937;-78
2022/03/23 08:59:56;;;;;;;;;;;11.40;99.90;;;;;;4971912;28;19929;-78
2022/03/23 09:02:23;;;;;;;;;;;11.50;99.90;;;;;;4972097;28;19927;-78
2022/03/23 09:04:50;;;;;;;;;;;11.70;99.90;;;;;;4971473;28;19930;-77
2022/03/23 09:07:16;;;;;;;;;;;11.90;99.90;;;;;;4971499;28;19930;-76
2022/03/23 09:09:44;;;;;;;;;;;;;;;;;;4971503;28;19926;-78
2022/03/23 09:12:12;;;;;;;;;;;12.20;99.90;;;;;;4988602;28;19937;-76
2022/03/23 09:14:39;;;;;;;;;;;12.40;99.90;;;;;;4991113;28;19977;-78
2022/03/23 09:17:06;;;;;;;;;;;12.50;99.90;;;;;;5007680;23;19936;-74
2022/03/23 09:19:33;;;;;;;;;;;;;;;;;;4991394;28;19926;-74
2022/03/23 09:22:00;;;;;;;;;;;12.70;99.90;;;;;;4993006;28;19968;-74
2022/03/23 09:24:27;;;;;;;;;;;12.90;99.90;;;;;;4991978;28;19930;-74
2022/03/23 09:26:54;;;;;;;;;;;13.00;99.90;;;;;;4991724;28;19926;-74
2022/03/23 09:29:23;;;;;;;;;;;13.10;99.90;;;;;;5006014;28;19926;-74
2022/03/23 09:31:50;;;;;;;;;;;13.20;99.90;;;;;;5007234;28;19925;-75
2022/03/23 09:34:17;;;;;;;;;;;13.40;99.90;;;;;;5006755;28;19937;-74
2022/03/23 09:39:28;;;;;;;;;;;13.60;99.90;;;;;;4990779;28;20016;-74
2022/03/23 09:41:57;;;;;;;;;;;13.70;99.90;;;;;;5007330;28;20037;-73
2022/03/23 09:44:28;;;;;;;;;;;13.80;99.90;;;;;;5006483;28;19965;-75
2022/03/23 09:46:55;;;;;;;;;;;13.90;99.90;;;;;;5006956;28;19926;-75
2022/03/23 09:49:22;;;;;;;;;;;14.00;99.90;;;;;;5006779;28;19933;-74
2022/03/23 09:51:52;;;;;;;;;;;14.20;99.90;;;;;;5007328;28;19936;-74
2022/03/23 09:54:19;;;;;;;;;;;14.30;99.90;;;;;;5007626;28;19940;-74
2022/03/23 09:56:46;;;;;;;;;;;14.40;99.90;;;;;;5007929;28;19926;-74
2022/03/23 09:59:12;;;;;;;;;;;14.50;99.90;;;;;;5001381;28;20020;-74
2022/03/23 10:02:13;;;;;;;;;;;14.60;99.90;;;;;;4985700;28;19936;-76
2022/03/23 10:05:23;;;;;;;;;;;14.60;99.90;;;;;;4990960;28;20027;-75
2022/03/23 10:07:53;;;;;;;;;;;14.80;99.90;;;;;;5009856;28;19937;-75
2022/03/23 10:10:42;;;;;;;;;;;14.90;99.90;;;;;;5010604;28;19934;-76
2022/03/23 10:13:28;;;;;;;;;;;15.00;99.90;;;;;;4995086;28;19929;-75
2022/03/23 10:16:13;;;;;;;;;;;15.20;99.90;;;;;;4995196;28;19926;-75
2022/03/23 10:18:50;;;;;;;;;;;15.30;99.90;;;;;;4984449;28;20384;-74
2022/03/23 10:21:19;;;;;;;;;;;15.40;99.90;;;;;;5017061;28;20407;-76
2022/03/23 10:24:13;;;;;;;;;;;15.50;99.90;;;;;;5017406;28;20423;-74
2022/03/23 10:26:41;;;;;;;;;;;15.60;99.90;;;;;;5017531;28;20422;-70
2022/03/23 10:29:19;;;;;;;;;;;15.80;99.90;;;;;;5014279;28;19925;-71
2022/03/23 10:31:46;;;;;;;;;;;15.80;99.90;;;;;;4992729;28;19929;-73
2022/03/23 10:34:12;;;;;;;;;;;15.90;99.90;;;;;;4994959;28;19952;-73
2022/03/23 10:36:51;;;;;;;;;;;16.10;99.90;;;;;;5014248;28;19926;-74
2022/03/23 10:39:18;;;;;;;;;;;16.20;99.90;;;;;;5013396;28;19925;-73
2022/03/23 10:41:56;;;;;;;;;;;16.30;99.90;;;;;;4997641;28;19932;-73
2022/03/23 10:44:23;;;;;;;;;;;16.50;99.90;;;;;;4997157;28;19925;-73
2022/03/23 10:46:49;;;;;;;;;;;16.60;99.90;;;;;;4996991;28;19930;-74
2022/03/23 10:49:16;;;;;;;;;;;16.70;99.90;;;;;;5000344;28;19925;-73
2022/03/23 10:51:44;;;;;;;;;;;16.80;99.90;;;;;;4997916;28;19929;-73
2022/03/23 10:54:16;;;;;;;;;;;17.00;99.90;;;;;;4996984;28;19929;-74
2022/03/23 10:56:43;;;;;;;;;;;17.20;99.90;;;;;;4997190;28;19926;-74
2022/03/23 10:59:23;;;;;;;;;;;17.40;99.90;;;;;;4999513;28;19933;-74
2022/03/23 11:01:58;;;;;;;;;;;17.50;99.90;;;;;;5002823;28;19929;-73
2022/03/23 11:04:28;;;;;;;;;;;17.70;99.90;;;;;;4997481;28;20331;-73
2022/03/23 11:06:56;;;;;;;;;;;17.90;99.90;;;;;;4997000;28;20301;-74
2022/03/23 11:17:50;;;;;;;;;;;18.50;99.90;;;;;;5012801;28;19932;-73
2022/03/23 11:20:17;;;;;;;;;;;18.70;99.90;;;;;;4996670;28;19936;-75
2022/03/23 11:22:44;;;;;;;;;;;18.90;99.90;;;;;;4997017;28;19926;-74
2022/03/23 11:25:13;;;;;;;;;;;19.10;99.90;;;;;;5005423;28;19925;-74
2022/03/23 11:27:40;;;;;;;;;;;19.30;99.90;;;;;;4997061;28;19926;-72
2022/03/23 11:30:07;;;;;;;;;;;19.50;99.90;;;;;;4996699;28;19956;-74
2022/03/23 11:32:37;;;;;;;;;;;19.60;99.90;;;;;;4997442;28;19925;-73
2022/03/23 11:35:04;;;;;;;;;;;;;;;;;;4996668;28;20431;-74
2022/03/23 11:37:32;;;;;;;;;;;19.90;99.90;;;;;;4981569;28;19930;-73
2022/03/23 11:39:59;;;;;;;;;;;20.10;99.90;;;;;;5028889;28;19925;-73
2022/03/23 11:42:29;;;;;;;;;;;20.40;99.90;;;;;;5016454;28;19936;-75
2022/03/23 11:44:57;;;;;;;;;;;20.80;99.90;;;;;;5016028;28;20336;-73
2022/03/23 11:47:29;;;;;;;;;;;21.90;99.90;;;;;;5016351;28;19925;-73
2022/03/23 11:50:01;;;;;;;;;;;26.00;99.90;;;;;;5015590;28;19925;-73
2022/03/23 11:52:32;;;;;;;;;;;29.00;99.90;;;;;;5016096;28;19925;-73
2022/03/23 11:58:04;;;;;;;;;;;32.40;96.60;;;;;;5015894;28;19921;-73
2022/03/23 12:00:38;;;;;;;;;;;33.30;94.60;;;;;;5016030;28;19928;-73
2022/03/23 12:03:05;;;;;;;;;;;31.90;92.20;;;;;;5001767;28;19930;-74
2022/03/23 12:05:33;;;;;;;;;;;33.60;92.90;;;;;;5004710;28;20355;-77
2022/03/23 12:07:59;;;;;;;;;;;35.10;92.50;;;;;;4999936;28;20021;-77
2022/03/23 12:10:28;;;;;;;;;;;34.70;91.60;;;;;;4995894;28;19925;-76
2022/03/23 12:12:55;;;;;;;;;;;33.80;91.10;;;;;;4998199;28;19930;-78
2022/03/23 12:15:27;;;;;;;;;;;33.90;91.40;;;;;;4997385;28;20293;-74
2022/03/23 12:18:02;;;;;;;;;;;33.90;90.80;;;;;;4993329;28;19932;-74
2022/03/23 12:20:29;;;;;;;;;;;33.20;90.10;;;;;;5006454;28;19925;-74
2022/03/23 12:23:17;;;;;;;;;;;32.60;89.60;;;;;;5015437;28;19925;-74
2022/03/23 12:25:56;;;;;;;;;;;32.50;90.30;;;;;;5020286;28;19972;-78
2022/03/23 12:28:27;;;;;;;;;;;32.10;86.00;;;;;;5000795;28;19929;-75
2022/03/23 12:31:10;;;;;;;;;;;32.20;85.90;;;;;;4997221;28;19929;-75
2022/03/23 12:33:51;;;;;;;;;;;32.70;85.90;;;;;;4986251;28;19926;-76
2022/03/23 12:36:27;;;;;;;;;;;33.70;86.10;;;;;;5020176;28;20016;-75
2022/03/23 12:38:58;;;;;;;;;;;33.20;84.40;;;;;;5015373;28;19925;-75
2022/03/23 12:41:40;;;;;;;;;;;33.20;86.20;;;;;;5015525;28;20461;-75
2022/03/23 12:44:11;;;;;;;;;;;34.00;85.20;;;;;;5015453;28;19926;-73
2022/03/23 12:46:43;;;;;;;;;;;33.30;83.40;;;;;;5015042;28;19948;-75
2022/03/23 13:00:25;;;;;;;;;;;31.70;83.90;;;;;;4987578;28;19926;-76
2022/03/23 13:03:11;;;;;;;;;;;31.50;83.40;;;;;;5001268;28;19980;-75
2022/03/23 13:05:38;;;;;;;;;;;31.70;83.80;;;;;;5010264;28;20310;-77
2022/03/23 13:08:27;;;;;;;;;;;31.90;83.50;;;;;;4995341;28;19933;-75
2022/03/23 13:10:58;;;;;;;;;;;31.70;83.40;;;;;;4994540;28;19933;-75
2022/03/23 13:13:25;;;;;;;;;;;31.70;81.00;;;;;;4994633;28;19932;-75
2022/03/23 13:15:52;;;;;;;;;;;31.90;81.30;;;;;;4995013;28;20309;-76
2022/03/23 13:18:24;;;;;;;;;;;31.70;80.40;;;;;;4995184;28;19926;-77
2022/03/23 13:20:52;;;;;;;;;;;31.50;80.00;;;;;;4998544;28;19926;-75
2022/03/23 13:23:19;;;;;;;;;;;31.00;79.80;;;;;;5028310;28;19931;-77
2022/03/23 13:25:47;;;;;;;;;;;30.40;80.50;;;;;;5014771;28;19948;-75
2022/03/23 13:28:14;;;;;;;;;;;30.50;81.20;;;;;;5031365;28;20016;-75
2022/03/23 13:30:42;;;;;;;;;;;30.30;80.20;;;;;;5014863;28;19960;-75
2022/03/23 13:33:10;;;;;;;;;;;29.90;79.70;;;;;;5014433;28;19932;-75
2022/03/23 13:35:44;;;;;;;;;;;29.70;79.30;;;;;;5008251;28;19925;-77
2022/03/23 13:38:11;;;;;;;;;;;29.80;79.90;;;;;;4996142;28;19933;-75
2022/03/23 13:43:23;;;;;;;;;;;29.60;81.90;;;;;;5013138;28;19948;-76
2022/03/23 13:45:51;;;;;;;;;;;29.60;82.30;;;;;;5014386;28;19925;-76
2022/03/23 13:48:18;;;;;;;;;;;29.70;82.20;;;;;;5013790;28;19925;-76
2022/03/23 13:50:48;;;;;;;;;;;29.80;81.50;;;;;;5013865;28;19925;-76
2022/03/23 13:53:15;;;;;;;;;;;29.80;81.70;;;;;;5014291;28;19925;-74
2022/03/23 13:55:42;;;;;;;;;;;29.70;81.20;;;;;;5013944;28;19929;-76
2022/03/23 13:58:09;;;;;;;;;;;29.80;81.60;;;;;;5014532;28;20000;-77
2022/03/23 14:00:37;;;;;;;;;;;29.70;81.00;;;;;;5014535;28;19929;-77
2022/03/23 14:03:04;;;;;;;;;;;30.00;80.30;;;;;;5014826;28;19925;-77
2022/03/23 14:05:31;;;;;;;;;;;29.90;81.10;;;;;;5002570;28;20348;-76
2022/03/23 14:07:59;;;;;;;;;;;30.00;80.50;;;;;;5001648;28;19931;-76
2022/03/23 14:10:30;;;;;;;;;;;30.20;79.60;;;;;;4992994;28;19925;-76
2022/03/23 14:12:58;;;;;;;;;;;30.40;79.70;;;;;;4993473;28;19961;-76
2022/03/23 14:15:25;;;;;;;;;;;29.60;79.10;;;;;;4993914;28;19925;-76
2022/03/23 14:17:56;;;;;;;;;;;29.10;79.40;;;;;;4993818;28;19933;-76
2022/03/23 14:20:24;;;;;;;;;;;28.70;80.10;;;;;;4993159;28;19925;-76
2022/03/23 14:22:52;;;;;;;;;;;28.50;80.00;;;;;;4994125;28;19932;-76
2022/03/23 14:25:21;;;;;;;;;;;28.60;80.20;;;;;;4993631;28;19937;-76
2022/03/23 14:27:49;;;;;;;;;;;28.80;79.80;;;;;;4994038;28;19925;-76
2022/03/23 14:30:16;;;;;;;;;;;27.90;78.70;;;;;;4993652;28;19925;-76
2022/03/23 14:32:45;;;;;;;;;;;28.00;80.00;;;;;;4993586;28;19926;-76
2022/03/23 14:35:13;;;;;;;;;;;28.30;79.80;;;;;;4993478;28;19951;-76
2022/03/23 14:37:41;;;;;;;;;;;28.60;77.80;;;;;;4993633;28;19926;-76
2022/03/23 14:40:27;;;;;;;;;;;28.70;78.00;;;;;;4990670;28;19926;-75
2022/03/23 14:42:55;;;;;;;;;;;28.70;78.10;;;;;;5004045;28;19965;-75
2022/03/23 14:45:30;;;;;;;;;;;28.80;77.80;;;;;;4994376;28;20000;-76
2022/03/23 14:47:58;;;;;;;;;;;28.70;77.20;;;;;;4993366;28;19957;-76
2022/03/23 14:50:24;;;;;;;;;;;28.90;77.70;;;;;;4993093;28;20454;-76
2022/03/23 14:52:51;;;;;;;;;;;28.60;77.80;;;;;;4993681;28;19933;-75
2022/03/23 14:55:18;;;;;;;;;;;28.90;77.80;;;;;;4996762;28;20012;-76
2022/03/23 14:57:47;;;;;;;;;;;29.20;77.10;;;;;;4997252;28;19983;-75
2022/03/23 15:00:14;;;;;;;;;;;29.30;77.10;;;;;;4997049;28;19925;-75
2022/03/23 15:02:41;;;;;;;;;;;29.40;77.10;;;;;;5009667;28;19925;-75
2022/03/23 15:13:15;;;;;;;;;;;29.10;76.90;;;;;;5005474;28;19925;-75
2022/03/23 15:13:25;;;;;;;;;;;29.10;77.50;;;;;;5016535;28;19964;-78
2022/03/23 15:15:51;;;;;;;;;;;29.20;77.50;;;;;;5016442;28;19925;-75
2022/03/23 15:18:18;;;;;;;;;;;28.70;77.20;;;;;;5017203;28;19932;-76